createdAt,value
2022-11-16T04:53:58.625Z,54.80
2022-11-16T05:58:41.295Z,85.05
2022-11-16T06:03:04.727Z,71.43
2022-11-16T06:56:58.111Z,74.63
2022-11-16T07:13:38.308Z,76.63
2022-11-16T07:17:38.594Z,81.38
2022-11-16T07:27:02.891Z,78.50
2022-11-16T07:30:31.317Z,78.75
2022-11-16T07:39:19.772Z,77.40
2022-11-16T07:43:27.333Z,82.67
2022-11-16T07:52:25.952Z,82.95
2022-11-16T07:56:16.751Z,83.78
2022-11-16T08:00:56.570Z,76.03
2022-11-16T08:04:28.867Z,80.60
2022-11-16T08:08:56.661Z,77.30
2022-11-16T08:12:38.522Z,81.43
2022-11-16T08:16:24.102Z,81.45
2022-11-16T08:19:46.662Z,85.70
2022-11-16T08:23:13.494Z,80.13
2022-11-16T08:26:54.307Z,76.85
2022-11-16T08:30:36.328Z,75.13
2022-11-16T08:34:12.355Z,78.82
2022-11-16T08:37:42.413Z,76.45
2022-11-16T08:41:02.894Z,75.17
2022-11-16T08:55:14.764Z,79.30
2022-11-16T08:59:02.768Z,72.20
2022-11-16T09:03:32.158Z,75.60
2022-11-16T09:07:06.422Z,74.90
2022-11-16T09:16:59.672Z,79.63
2022-11-16T09:25:51.881Z,75.47
2022-11-16T09:29:22.470Z,76.43
2022-11-16T09:33:14.224Z,80.63
2022-11-16T09:36:27.663Z,79.60
2022-11-16T09:40:24.509Z,78.32
2022-11-16T09:44:45.353Z,81.87
2022-11-16T09:48:44.433Z,76.55
2022-11-16T09:53:22.372Z,74.45
2022-11-16T09:58:04.679Z,69.50
2022-11-16T10:01:40.123Z,75.88
2022-11-16T10:05:00.812Z,67.73
2022-11-16T10:09:27.372Z,80.97
2022-11-16T10:14:04.006Z,70.90
2022-11-16T10:18:48.563Z,75.47
2022-11-16T10:23:47.589Z,66.15
2022-11-16T10:27:44.072Z,70.77
2022-11-16T10:32:26.305Z,72.80
2022-11-16T10:47:17.852Z,67.90
2022-11-16T11:01:47.088Z,66.10
2022-11-16T11:05:31.826Z,65.43
2022-11-16T11:08:51.488Z,62.90
2022-11-16T11:12:25.507Z,66.13
2022-11-16T11:15:48.485Z,62.38
2022-11-16T11:19:41.446Z,58.38
2022-11-16T11:23:21.827Z,53.63
2022-11-16T11:27:16.384Z,53.60
2022-11-16T11:32:06.575Z,55.00
2022-11-16T11:40:33.228Z,55.45
2022-11-16T11:43:48.842Z,60.47
2022-11-16T11:48:02.968Z,59.63
2022-11-16T11:52:43.088Z,56.23
2022-11-16T11:56:12.229Z,60.28
2022-11-16T11:59:22.007Z,55.50
2022-11-16T12:03:00.502Z,55.00
2022-11-16T12:06:58.797Z,54.47
2022-11-16T12:10:47.175Z,56.63
2022-11-16T12:14:51.564Z,51.97
2022-11-16T12:18:47.861Z,54.67
2022-11-16T12:22:59.662Z,48.88
2022-11-16T12:32:06.501Z,54.70
2022-11-16T12:36:05.319Z,55.75
2022-11-16T12:39:38.100Z,51.90
2022-11-16T12:47:59.668Z,49.28
2022-11-16T12:51:55.944Z,55.73
2022-11-16T12:55:26.915Z,52.38
2022-11-16T12:59:12.875Z,50.05
2022-11-16T13:07:32.210Z,50.95
2022-11-16T13:15:21.920Z,49.45
2022-11-16T13:19:13.528Z,47.40
2022-11-16T13:22:27.058Z,46.88
2022-11-16T13:26:21.760Z,46.33
2022-11-16T13:30:16.484Z,54.00
2022-11-16T13:34:13.565Z,48.80
2022-11-16T13:37:47.846Z,52.38
2022-11-16T13:41:48.798Z,47.92
2022-11-16T13:46:56.590Z,49.13
2022-11-16T13:50:45.296Z,53.00
2022-11-16T13:55:40.532Z,52.55
2022-11-16T13:59:03.080Z,54.35
2022-11-16T14:02:42.290Z,53.80
2022-11-16T14:07:24.765Z,49.50
2022-11-16T14:11:11.778Z,47.07
2022-11-16T14:15:34.946Z,47.63
2022-11-16T14:18:54.101Z,50.63
2022-11-16T14:22:26.107Z,52.63
2022-11-16T14:26:21.630Z,50.25
2022-11-16T14:30:28.539Z,48.57
2022-11-16T14:33:57.116Z,51.20
2022-11-16T14:43:15.566Z,51.10
2022-11-16T14:46:50.240Z,48.00
2022-11-16T14:50:39.701Z,48.80
2022-11-16T14:54:08.160Z,52.13
2022-11-16T14:57:24.663Z,54.88
2022-11-16T15:01:19.188Z,53.53
2022-11-16T15:04:57.717Z,55.38
2022-11-16T15:10:12.956Z,45.87
2022-11-16T19:17:14.742Z,29.88
